Airfield :
LOGIN :

Register | Disclaimer

   EN    FR    IT 

 










Legend :    VFR   Marginal VFR   IFR   Intensive IFR   Very Intensive IFR
Visi :
Ceiling :
>= 8 km
>= 3000ft
5 to 8 km
1000 to 3000 ft
1500m to 5 km
500 to 1000 ft
800 to 1500m
200 to 500 ft
< 800m
< 200 ft
Symbols :   Thunderstorms  Fog  Heavy snow  Heavy precipitations  Wind > 20 kt
SIGMETs :     Misc.  Thunderstorms  Icing  Turbulence  Mountain Waves  Volcanic Ashes






- Airport Elevation : 374 ft
- IATA code : LIS


LPPT - Lisboa Portela

CURRENT METAR :
  • 161800Z 21005KT 9999 FEW024 BKN026 15/13 Q1027

EXPIRED METARs :
  • 161730Z 21007KT 9999 FEW024 BKN026 16/13 Q1027
  • 161700Z 21008KT 9999 FEW017 BKN028 16/12 Q1027
  • 161630Z 22007KT 9999 FEW014 BKN028 16/13 Q1027
  • 161600Z 22010KT 9999 FEW018 SCT022 BKN028 16/13 Q1027
  • 161530Z 21009KT 170V240 9999 SCT017 BKN026 16/13 Q1027

TAF TAF LPPT
Valid from the 16 at 18:00 until the 18 at 00:00 UTC


161700Z 1618/1724 20005KT 9999 SCT012 BKN020
BECMG 1621/1624 SCT005 BKN010
TEMPO 1700/1709 3000 DZRA BR SCT002 BKN004
BECMG 1709/1712 35010KT SCT025



MET'MAP, your aeronautical weather chart ! - Copyright ORBIFLY December 2007 - Disclaimer

ORBIFLY MET'MAP TEAM :

Programming & Development : Alexandra Zaïnal
Concept & original design : Baudouin d'Aumeries
Assistance for programming : Marc-Olivier Méhu
Technical & hardware support : Manuel Goepfert

Contact : metmap@orbifly.com




SOURCES & CREDITS :

   NOAA